Time;durP1;ratioP1;P1;durP2;ratioP2;P2;SDS_P1;SDS_P2;PMS_P1;PMS_P2;Temp;Humidity;BMP_temperature;BMP_pressure;BME280_temperature;BME280_humidity;BME280_pressure;Samples;Min_cycle;Max_cycle;Signal;HPM_P1;HPM_P2
2021/05/25 00:01:30;;;;;;;3.13;0.90;;;;;;;2.43;65.10;94860.31;5027991;28;20105;-86
2021/05/25 00:03:56;;;;;;;4.28;1.65;;;;;;;2.22;65.61;94861.34;5044969;28;20111;-86
2021/05/25 00:06:21;;;;;;;3.15;1.33;;;;;;;2.35;65.35;94868.09;5041565;28;20081;-87
2021/05/25 00:08:47;;;;;;;1.73;1.35;;;;;;;2.88;63.57;94879.72;5042631;28;20470;-86
2021/05/25 00:11:12;;;;;;;3.15;1.40;;;;;;;2.03;66.79;94858.78;5027622;28;20163;-86
2021/05/25 00:13:38;;;;;;;1.85;1.10;;;;;;;2.53;64.40;94868.97;5044876;28;20081;-86
2021/05/25 00:16:04;;;;;;;1.83;1.17;;;;;;;1.93;66.53;94878.03;5027449;28;20117;-86
2021/05/25 00:18:30;;;;;;;2.00;1.30;;;;;;;2.11;65.86;94886.00;5044450;28;20076;-86
2021/05/25 00:20:55;;;;;;;1.30;1.20;;;;;;;2.33;65.21;94872.66;5061207;28;20105;-86
2021/05/25 00:23:21;;;;;;;2.35;1.38;;;;;;;2.59;64.39;94872.00;5044709;28;20480;-86
2021/05/25 00:25:46;;;;;;;2.42;1.27;;;;;;;2.61;64.57;94862.16;5045152;28;20084;-86
2021/05/25 00:28:11;;;;;;;1.95;1.40;;;;;;;2.72;63.62;94861.13;5027258;28;20125;-86
2021/05/25 00:30:37;;;;;;;3.78;1.55;;;;;;;2.60;64.58;94869.22;5045655;28;20124;-86
2021/05/25 00:33:02;;;;;;;1.25;1.13;;;;;;;2.85;63.94;94874.75;5042925;28;20109;-86
2021/05/25 00:35:29;;;;;;;1.58;1.10;;;;;;;2.88;63.47;94884.97;5059945;28;20097;-87
2021/05/25 00:37:55;;;;;;;3.03;1.40;;;;;;;2.53;64.59;94871.59;5050233;28;20072;-86
2021/05/25 00:40:21;;;;;;;2.53;1.33;;;;;;;3.01;63.53;94878.53;5043588;28;20132;-87
2021/05/25 00:42:46;;;;;;;4.75;1.45;;;;;;;3.65;60.88;94875.00;5043620;28;20069;-87
2021/05/25 00:45:13;;;;;;;2.25;1.38;;;;;;;3.75;60.75;94867.84;5028172;28;20081;-87
2021/05/25 00:47:38;;;;;;;3.25;1.40;;;;;;;3.85;60.72;94878.31;5026018;28;20115;-86
2021/05/25 00:50:12;;;;;;;2.13;1.10;;;;;;;2.85;63.41;94893.16;5045362;28;20457;-86
2021/05/25 00:52:47;;;;;;;2.70;1.20;;;;;;;1.96;66.35;94876.91;5045106;28;20121;-87
2021/05/25 00:55:17;;;;;;;2.28;1.33;;;;;;;3.23;62.79;94881.72;5034977;28;20602;-86
2021/05/25 00:57:43;;;;;;;1.75;1.17;;;;;;;3.28;61.78;94875.03;5062364;28;20124;-86
2021/05/25 01:00:10;;;;;;;3.45;1.48;;;;;;;2.20;65.29;94880.84;5011159;28;20481;-86
2021/05/25 01:02:35;;;;;;;2.47;1.58;;;;;;;2.91;62.33;94873.31;5044071;28;20090;-85
2021/05/25 01:05:01;;;;;;;5.35;2.15;;;;;;;2.62;64.09;94874.34;5043426;28;20108;-86
2021/05/25 01:07:26;;;;;;;2.85;1.50;;;;;;;3.79;60.23;94874.47;5024054;28;20101;-85
2021/05/25 01:09:54;;;;;;;2.03;1.30;;;;;;;2.51;64.19;94886.69;5043122;28;20513;-86
2021/05/25 01:12:20;;;;;;;2.15;1.23;;;;;;;3.39;61.29;94876.59;5026688;28;20548;-86
2021/05/25 01:14:51;;;;;;;7.85;2.20;;;;;;;3.86;59.83;94871.19;5043054;28;20073;-86
2021/05/25 01:17:17;;;;;;;3.70;1.35;;;;;;;3.74;59.53;94868.81;5039497;28;20110;-86
2021/05/25 01:19:42;;;;;;;4.75;1.20;;;;;;;3.61;59.78;94887.63;5031284;28;20152;-86
2021/05/25 01:22:08;;;;;;;4.90;1.60;;;;;;;3.03;60.79;94892.38;5038644;28;20082;-87
2021/05/25 01:24:33;;;;;;;3.65;1.58;;;;;;;3.11;60.07;94889.81;5042667;28;20105;-86
2021/05/25 01:27:03;;;;;;;4.57;1.42;;;;;;;2.37;62.01;94889.78;5008579;28;20112;-86
2021/05/25 01:29:28;;;;;;;2.47;1.15;;;;;;;3.40;59.41;94880.88;5042863;28;20121;-86
2021/05/25 01:31:54;;;;;;;2.97;1.20;;;;;;;2.83;61.19;94891.66;5041444;28;20105;-85
2021/05/25 01:34:19;;;;;;;2.63;1.20;;;;;;;2.29;62.41;94892.31;5042807;28;20077;-85
2021/05/25 01:36:45;;;;;;;3.15;1.50;;;;;;;2.21;62.28;94885.16;5058446;28;20105;-86
2021/05/25 01:39:11;;;;;;;3.20;1.55;;;;;;;1.96;63.64;94897.94;5045975;28;20351;-86
2021/05/25 01:41:36;;;;;;;4.50;1.67;;;;;;;1.55;64.54;94896.34;5042840;28;20084;-87
2021/05/25 01:44:02;;;;;;;3.88;1.40;;;;;;;1.42;65.98;94888.72;5059086;28;20109;-86
2021/05/25 01:46:27;;;;;;;1.83;1.30;;;;;;;3.03;60.46;94879.22;5059487;28;20268;-86
2021/05/25 01:48:53;;;;;;;1.77;1.20;;;;;;;2.64;61.77;94872.38;5023572;28;20534;-86
2021/05/25 01:51:19;;;;;;;2.35;1.48;;;;;;;3.04;60.44;94879.03;5025963;28;20109;-86
2021/05/25 01:53:45;;;;;;;5.78;1.45;;;;;;;3.38;59.31;94888.09;5045515;28;20081;-85
2021/05/25 01:56:10;;;;;;;3.90;1.52;;;;;;;2.69;61.27;94879.81;5051675;28;20578;-83
2021/05/25 01:58:36;;;;;;;9.13;1.45;;;;;;;3.65;59.37;94880.28;5065889;28;20542;-83
2021/05/25 02:01:08;;;;;;;1.75;0.82;;;;;;;3.31;59.87;94884.41;5060584;28;20551;-83
2021/05/25 02:03:34;;;;;;;1.98;1.27;;;;;;;3.61;58.71;94887.63;5062466;28;20541;-83
2021/05/25 02:06:00;;;;;;;2.13;1.42;;;;;;;3.33;60.08;94889.53;5046166;28;20073;-83
2021/05/25 02:08:25;;;;;;;2.45;1.50;;;;;;;1.94;64.07;94902.50;5025757;28;20579;-83
2021/05/25 02:10:52;;;;;;;3.15;1.70;;;;;;;2.59;63.62;94912.22;5027014;28;20093;-82
2021/05/25 02:13:22;;;;;;;3.58;1.10;;;;;;;3.47;61.67;94901.34;5046808;28;20420;-83
2021/05/25 02:15:49;;;;;;;4.25;1.20;;;;;;;3.32;61.08;94912.38;5061095;28;20112;-83
2021/05/25 02:18:19;;;;;;;1.23;1.10;;;;;;;3.64;60.87;94902.31;5049164;28;20093;-83
2021/05/25 02:20:45;;;;;;;2.55;1.08;;;;;;;2.88;62.79;94913.06;5045858;28;20787;-82
2021/05/25 02:23:11;;;;;;;4.35;2.38;;;;;;;3.30;61.79;94914.31;5048255;28;20244;-83
2021/05/25 02:25:36;;;;;;;1.75;1.08;;;;;;;3.09;62.38;94906.72;5031685;28;20513;-83
2021/05/25 02:28:02;;;;;;;4.85;1.45;;;;;;;3.40;61.92;94904.53;5047664;28;20098;-82
2021/05/25 02:30:28;;;;;;;2.00;1.30;;;;;;;3.59;60.96;94896.66;5047097;28;20097;-83
2021/05/25 02:32:54;;;;;;;2.25;1.40;;;;;;;3.43;60.33;94906.88;5029151;28;20227;-83
2021/05/25 02:35:20;;;;;;;4.68;1.70;;;;;;;2.50;63.00;94897.34;5046484;28;20171;-83
2021/05/25 02:37:45;;;;;;;2.17;1.40;;;;;;;3.36;61.60;94903.19;5052662;28;20089;-83
2021/05/25 02:40:11;;;;;;;4.03;1.50;;;;;;;3.73;60.46;94890.88;5048134;28;20101;-83
2021/05/25 02:42:37;;;;;;;1.92;0.90;;;;;;;3.56;60.60;94905.69;5030826;28;20096;-83
2021/05/25 02:45:03;;;;;;;1.30;1.17;;;;;;;3.10;61.96;94903.91;5032489;28;20601;-83
2021/05/25 02:47:29;;;;;;;0.98;0.98;;;;;;;3.01;63.25;94902.19;5029730;28;20106;-83
2021/05/25 02:49:54;;;;;;;2.30;1.40;;;;;;;2.09;64.93;94903.72;5048222;28;20097;-83
2021/05/25 02:52:20;;;;;;;4.38;2.30;;;;;;;2.44;64.82;94905.78;5047494;28;20113;-83
2021/05/25 02:54:45;;;;;;;4.22;1.38;;;;;;;3.22;62.30;94901.91;5049360;28;20911;-83
2021/05/25 02:57:11;;;;;;;4.80;1.48;;;;;;;2.56;64.08;94909.06;5048388;28;20101;-83
2021/05/25 02:59:36;;;;;;;4.10;1.60;;;;;;;3.00;62.68;94908.44;5048247;28;20102;-83
2021/05/25 03:02:01;;;;;;;3.13;1.60;;;;;;;3.20;62.36;94901.22;5051209;28;20073;-83
2021/05/25 03:04:27;;;;;;;2.58;1.55;;;;;;;2.73;62.14;94925.88;5050078;28;20163;-83
2021/05/25 03:06:53;;;;;;;1.70;1.27;;;;;;;3.33;61.31;94898.22;5068049;28;20139;-83
2021/05/25 03:09:18;;;;;;;3.17;1.92;;;;;;;3.11;60.97;94910.84;5051658;28;20119;-83
2021/05/25 03:11:44;;;;;;;2.50;0.95;;;;;;;3.52;60.61;94910.47;5050135;28;20869;-83
2021/05/25 03:14:09;;;;;;;3.60;1.40;;;;;;;3.22;60.66;94906.34;5050584;28;20085;-83
2021/05/25 03:16:35;;;;;;;3.22;1.42;;;;;;;2.68;62.81;94907.91;5065050;28;20109;-83
2021/05/25 03:19:00;;;;;;;7.47;2.42;;;;;;;1.54;65.88;94912.22;5051299;28;20534;-83
2021/05/25 03:21:26;;;;;;;2.80;1.40;;;;;;;2.72;61.65;94905.81;5050356;28;20081;-83
2021/05/25 03:23:52;;;;;;;3.22;1.38;;;;;;;2.69;62.63;94904.28;5035036;28;20105;-83
2021/05/25 03:26:18;;;;;;;4.28;1.90;;;;;;;2.90;61.35;94904.03;5070291;28;20096;-83
2021/05/25 03:28:43;;;;;;;6.13;1.98;;;;;;;2.96;62.24;94902.63;5037322;28;20125;-83
2021/05/25 03:31:09;;;;;;;7.40;4.07;;;;;;;1.86;64.06;94917.16;5033388;28;20123;-83
2021/05/25 03:33:34;;;;;;;3.92;1.45;;;;;;;2.75;61.86;94913.41;5054340;28;20088;-83
2021/05/25 03:36:00;;;;;;;3.38;1.38;;;;;;;3.13;60.99;94905.44;5053368;28;20101;-83
2021/05/25 03:38:25;;;;;;;3.65;1.17;;;;;;;2.14;62.76;94924.28;5070559;28;20419;-83
2021/05/25 03:40:50;;;;;;;2.35;1.20;;;;;;;2.83;61.53;94913.53;5053404;28;20109;-83
2021/05/25 03:43:16;;;;;;;4.30;1.40;;;;;;;2.93;61.05;94917.88;5035753;28;20601;-83
2021/05/25 03:45:41;;;;;;;2.22;1.33;;;;;;;2.05;63.70;94919.88;5051929;28;20092;-83
2021/05/25 03:48:07;;;;;;;5.03;1.05;;;;;;;2.28;64.82;94904.59;5055140;28;20109;-83
2021/05/25 03:50:32;;;;;;;4.05;1.33;;;;;;;2.36;63.17;94920.50;5056404;28;20180;-83
2021/05/25 03:52:58;;;;;;;2.78;1.20;;;;;;;2.36;63.67;94927.53;5055814;28;20112;-82
2021/05/25 04:00:37;;;;;;;4.60;1.33;;;;;;;3.15;61.12;94921.91;5067704;28;20768;-83
2021/05/25 04:03:03;;;;;;;2.15;1.17;;;;;;;3.43;60.39;94930.56;5053245;28;20077;-83
2021/05/25 04:05:28;;;;;;;1.45;0.80;;;;;;;3.74;58.55;94925.94;5055774;28;20089;-83
2021/05/25 04:07:53;;;;;;;2.83;1.10;;;;;;;2.60;61.76;94927.03;5055973;28;20128;-83
2021/05/25 04:10:19;;;;;;;1.20;1.10;;;;;;;2.63;61.67;94923.28;5053335;28;20878;-83
2021/05/25 04:12:45;;;;;;;0.80;0.80;;;;;;;3.00;61.05;94934.72;5056195;28;20116;-83
2021/05/25 04:15:11;;;;;;;3.25;1.02;;;;;;;2.33;62.50;94933.91;5053810;28;20108;-83
2021/05/25 04:17:36;;;;;;;4.40;1.13;;;;;;;2.51;61.98;94909.50;5055736;28;20124;-83
2021/05/25 04:20:02;;;;;;;2.88;1.30;;;;;;;2.21;63.01;94914.06;5052774;28;20100;-83
2021/05/25 04:22:27;;;;;;;2.83;1.55;;;;;;;2.63;61.80;94926.72;5052948;28;20104;-83
2021/05/25 04:24:53;;;;;;;1.63;1.08;;;;;;;1.54;65.14;94913.06;5049594;28;20519;-83
2021/05/25 04:27:18;;;;;;;1.45;0.80;;;;;;;2.32;63.32;94936.69;5051976;28;20112;-83
2021/05/25 04:29:44;;;;;;;2.40;1.25;;;;;;;1.41;63.61;94928.19;5052706;28;20482;-83
2021/05/25 04:32:09;;;;;;;2.08;0.98;;;;;;;1.48;65.12;94931.94;5054218;28;20676;-83
2021/05/25 04:34:34;;;;;;;4.88;1.25;;;;;;;2.46;60.98;94930.13;5054388;28;20081;-83
2021/05/25 04:37:00;;;;;;;2.65;1.00;;;;;;;1.33;64.76;94928.91;5069825;28;20109;-83
2021/05/25 04:39:25;;;;;;;2.38;0.73;;;;;;;2.82;60.92;94934.69;5050698;28;20123;-83
2021/05/25 04:41:51;;;;;;;2.35;0.98;;;;;;;2.61;61.52;94933.94;5048601;28;20070;-83
2021/05/25 04:44:16;;;;;;;6.10;2.95;;;;;;;3.10;60.31;94935.47;5059091;28;20505;-83
2021/05/25 04:46:41;;;;;;;4.80;0.80;;;;;;;2.84;60.67;94940.63;5070138;28;20482;-82
2021/05/25 04:49:07;;;;;;;3.17;1.13;;;;;;;2.71;60.78;94933.06;5050738;28;20090;-83
2021/05/25 04:51:32;;;;;;;4.78;2.63;;;;;;;3.56;59.30;94921.50;5053961;28;20165;-83
2021/05/25 04:53:58;;;;;;;1.85;0.80;;;;;;;2.23;62.64;94944.44;5037809;28;20577;-83
2021/05/25 04:56:23;;;;;;;0.80;0.80;;;;;;;2.97;61.51;94946.38;5052822;28;20109;-83
2021/05/25 04:58:49;;;;;;;3.90;1.63;;;;;;;2.41;63.65;94940.25;5052182;28;20081;-83
2021/05/25 05:01:14;;;;;;;1.92;1.00;;;;;;;2.59;62.81;94932.44;5051788;28;20090;-83
2021/05/25 05:03:39;;;;;;;2.35;1.00;;;;;;;1.75;65.21;94946.19;5071310;28;20625;-83
2021/05/25 05:06:05;;;;;;;1.33;0.85;;;;;;;1.86;65.81;94951.28;5052542;28;20092;-83
2021/05/25 05:08:30;;;;;;;1.45;0.98;;;;;;;2.19;65.55;94948.34;5052464;28;20626;-83
2021/05/25 05:10:56;;;;;;;5.03;3.20;;;;;;;0.95;69.96;94942.63;5052623;28;20085;-83
2021/05/25 05:13:21;;;;;;;2.08;0.85;;;;;;;2.11;65.52;94950.84;5038679;28;20089;-83
2021/05/25 05:15:47;;;;;;;2.20;1.08;;;;;;;2.07;64.11;94957.31;5053468;28;20461;-83
2021/05/25 05:18:12;;;;;;;0.98;0.82;;;;;;;2.27;63.77;94952.88;5053671;28;20454;-83
2021/05/25 05:20:38;;;;;;;3.08;1.05;;;;;;;2.32;62.86;94945.41;5053793;28;20545;-83
2021/05/25 05:23:03;;;;;;;3.08;1.10;;;;;;;1.86;64.91;94947.81;5053159;28;20108;-83
2021/05/25 05:25:29;;;;;;;3.80;1.05;;;;;;;2.05;64.78;94961.91;5053450;28;20602;-83
2021/05/25 05:27:54;;;;;;;2.13;0.93;;;;;;;2.12;65.22;94957.75;5049639;28;20112;-83
2021/05/25 05:30:20;;;;;;;2.75;1.05;;;;;;;1.88;65.19;94951.16;5050191;28;20101;-83
2021/05/25 05:32:45;;;;;;;2.55;0.85;;;;;;;2.89;61.91;94948.88;5069220;28;20097;-83
2021/05/25 05:35:11;;;;;;;1.65;1.00;;;;;;;2.26;65.27;94956.47;5035091;28;20642;-82
2021/05/25 05:37:36;;;;;;;2.08;1.00;;;;;;;1.84;65.15;94955.84;5053450;28;20093;-82
2021/05/25 05:40:04;;;;;;;1.40;0.90;;;;;;;1.00;67.52;94963.22;5036636;28;20112;-83
2021/05/25 05:42:29;;;;;;;1.55;0.70;;;;;;;0.81;69.94;94974.44;5052227;28;20084;-82
2021/05/25 05:44:54;;;;;;;1.52;0.70;;;;;;;1.35;67.68;94975.00;5052124;28;20102;-82
2021/05/25 05:47:20;;;;;;;2.03;0.98;;;;;;;1.06;68.87;94970.50;5054084;28;20105;-82
2021/05/25 05:49:45;;;;;;;0.98;0.50;;;;;;;1.68;66.48;94979.19;5070232;28;20115;-82
2021/05/25 05:52:11;;;;;;;0.47;0.47;;;;;;;1.79;65.93;94963.31;5053878;28;20101;-82
2021/05/25 05:54:36;;;;;;;0.93;0.70;;;;;;;0.49;69.29;94971.03;5036772;28;20074;-82
2021/05/25 05:57:02;;;;;;;0.50;0.50;;;;;;;1.68;66.39;94976.56;5035556;28;20562;-82
2021/05/25 05:59:27;;;;;;;1.35;0.70;;;;;;;1.65;66.24;94976.84;5042541;28;20466;-82
2021/05/25 06:01:53;;;;;;;2.47;0.63;;;;;;;1.58;66.07;94989.69;5049915;28;20078;-82
2021/05/25 06:04:18;;;;;;;1.05;0.85;;;;;;;0.98;68.55;94976.44;5050287;28;20102;-82
2021/05/25 06:06:44;;;;;;;1.35;0.68;;;;;;;2.17;65.23;94980.97;5053746;28;20081;-82
2021/05/25 06:09:09;;;;;;;1.65;0.82;;;;;;;2.04;65.77;94974.19;5052658;28;20105;-82
2021/05/25 06:11:35;;;;;;;0.80;0.80;;;;;;;1.34;67.74;94975.13;5031187;28;20117;-83
2021/05/25 06:14:00;;;;;;;4.20;2.78;;;;;;;1.64;67.25;94999.66;5059613;28;20081;-83
2021/05/25 06:16:26;;;;;;;2.50;0.90;;;;;;;1.42;67.71;94977.06;5050797;28;20109;-83
2021/05/25 06:18:51;;;;;;;2.78;0.93;;;;;;;1.97;65.41;94981.81;5052793;28;20096;-82
2021/05/25 06:21:17;;;;;;;5.57;1.08;;;;;;;0.40;70.37;94988.34;5054860;28;20081;-82
2021/05/25 06:23:42;;;;;;;0.65;0.65;;;;;;;1.74;67.87;94978.66;5068700;28;20127;-83
2021/05/25 06:26:07;;;;;;;1.10;0.70;;;;;;;1.67;67.59;94969.66;5053757;28;20073;-83
2021/05/25 06:28:33;;;;;;;0.95;0.70;;;;;;;0.59;70.91;94992.84;5069261;28;20762;-82
2021/05/25 06:30:59;;;;;;;2.75;0.90;;;;;;;1.28;67.96;94988.78;5055201;28;20102;-81
2021/05/25 06:33:24;;;;;;;2.72;1.35;;;;;;;1.26;68.50;94981.03;5053099;28;20089;-82
2021/05/25 06:35:50;;;;;;;3.97;1.50;;;;;;;1.18;68.49;94986.97;5057155;28;20131;-82
2021/05/25 06:38:16;;;;;;;1.08;0.95;;;;;;;2.19;65.67;94979.00;5042906;28;20085;-82
2021/05/25 06:40:42;;;;;;;2.17;1.38;;;;;;;1.68;67.23;94989.69;5060656;28;20187;-82
2021/05/25 06:43:07;;;;;;;3.05;1.52;;;;;;;1.95;66.85;94985.53;5055585;28;20125;-82
2021/05/25 06:45:33;;;;;;;1.33;1.20;;;;;;;2.21;64.75;95016.50;5057953;28;20159;-82
2021/05/25 06:47:58;;;;;;;0.77;0.77;;;;;;;1.62;67.90;94991.06;5018046;28;20656;-82
2021/05/25 06:50:23;;;;;;;1.33;1.15;;;;;;;1.54;68.05;94999.63;5057885;28;20562;-82
2021/05/25 06:52:49;;;;;;;0.80;0.80;;;;;;;1.46;68.66;95000.28;5071396;28;20113;-82
2021/05/25 06:55:14;;;;;;;1.10;0.75;;;;;;;1.63;68.04;95011.09;5038512;28;20155;-82
2021/05/25 06:57:40;;;;;;;1.02;0.80;;;;;;;1.24;69.45;95011.84;5039948;28;20422;-83
2021/05/25 07:00:07;;;;;;;1.75;1.13;;;;;;;1.05;69.15;95002.09;5038018;28;20105;-82
2021/05/25 07:02:32;;;;;;;0.57;0.57;;;;;;;2.04;67.56;95013.56;5056280;28;20541;-82
2021/05/25 07:04:58;;;;;;;0.82;0.82;;;;;;;0.66;71.18;95019.38;5058948;28;20181;-82
2021/05/25 07:07:24;;;;;;;3.00;0.80;;;;;;;1.21;71.38;95006.84;5055900;28;20108;-82
2021/05/25 07:09:49;;;;;;;1.27;0.80;;;;;;;0.68;69.81;95009.56;5055996;28;20077;-83
2021/05/25 07:12:14;;;;;;;0.90;0.60;;;;;;;1.42;67.63;95001.50;5054900;28;20105;-83
2021/05/25 07:14:40;;;;;;;1.77;0.80;;;;;;;1.89;66.45;95015.81;5055519;28;20156;-83
2021/05/25 07:17:06;;;;;;;1.63;1.00;;;;;;;1.70;66.02;95006.16;5057353;28;20158;-83
2021/05/25 07:19:31;;;;;;;1.20;0.90;;;;;;;2.05;65.84;95007.38;5036974;28;20136;-83
2021/05/25 07:21:57;;;;;;;0.93;0.60;;;;;;;2.57;64.15;95008.81;5054767;28;20523;-83
2021/05/25 07:24:22;;;;;;;1.02;0.60;;;;;;;2.55;65.60;95000.22;5049905;28;20167;-83
2021/05/25 07:26:48;;;;;;;7.25;4.28;;;;;;;3.04;63.65;95000.03;5066531;28;20573;-83
2021/05/25 07:29:13;;;;;;;0.85;0.60;;;;;;;2.96;62.64;94999.94;5066830;28;20129;-83
2021/05/25 07:31:39;;;;;;;1.55;0.50;;;;;;;2.47;63.68;95019.34;5065851;28;20566;-84
2021/05/25 07:34:04;;;;;;;2.30;0.75;;;;;;;1.77;66.48;95020.34;5049635;28;20081;-83
2021/05/25 07:36:29;;;;;;;4.03;0.90;;;;;;;1.27;67.97;95016.81;5065958;28;20116;-83
2021/05/25 07:38:55;;;;;;;1.50;1.40;;;;;;;1.94;67.54;95013.59;5049891;28;20081;-83
2021/05/25 07:41:21;;;;;;;1.33;1.23;;;;;;;1.34;68.44;95020.56;5049271;28;20073;-84
2021/05/25 07:43:46;;;;;;;10.52;6.72;;;;;;;2.00;66.81;95020.06;5049985;28;20554;-83
2021/05/25 07:46:12;;;;;;;18.77;14.05;;;;;;;0.95;70.54;95034.38;5048671;28;20621;-83
2021/05/25 07:48:37;;;;;;;15.07;11.80;;;;;;;1.10;70.96;95020.91;5049785;28;20097;-84
2021/05/25 07:51:03;;;;;;;18.85;14.73;;;;;;;1.98;67.43;95011.53;5065485;28;20100;-84
2021/05/25 07:53:29;;;;;;;2.25;1.90;;;;;;;0.59;71.17;95037.38;5049430;28;20085;-84
2021/05/25 07:55:54;;;;;;;14.38;11.20;;;;;;;1.11;70.51;95033.91;5049207;28;20125;-83
2021/05/25 07:58:20;;;;;;;1.58;1.48;;;;;;;1.31;69.54;95035.72;5046454;28;20082;-83
2021/05/25 08:00:45;;;;;;;1.10;0.80;;;;;;;1.50;68.67;95040.22;5032011;28;20101;-83
2021/05/25 08:03:11;;;;;;;5.20;3.58;;;;;;;1.50;68.37;95035.78;5051491;28;20101;-83
2021/05/25 08:05:37;;;;;;;1.08;0.98;;;;;;;1.64;68.33;95046.03;5034316;28;20096;-83
2021/05/25 08:08:03;;;;;;;1.00;1.00;;;;;;;1.18;70.57;95043.84;5033690;28;20129;-83
2021/05/25 08:10:29;;;;;;;1.10;1.02;;;;;;;1.65;69.28;95048.53;5050324;28;20168;-83
2021/05/25 08:12:54;;;;;;;3.65;3.08;;;;;;;2.24;66.53;95052.97;5048696;28;20197;-83
2021/05/25 08:15:21;;;;;;;4.30;3.10;;;;;;;2.07;67.44;95039.56;5065124;28;20105;-83
2021/05/25 08:17:57;;;;;;;4.35;2.40;;;;;;;1.45;69.40;95071.25;5034338;28;20100;-83
2021/05/25 08:20:22;;;;;;;0.93;0.93;;;;;;;1.69;68.58;95051.72;5065169;28;20546;-83
2021/05/25 08:22:53;;;;;;;2.85;2.33;;;;;;;1.77;67.48;95066.78;5054473;28;20108;-83
2021/05/25 08:25:22;;;;;;;3.80;1.77;;;;;;;2.56;66.16;95041.31;5052623;28;20486;-83
2021/05/25 08:27:47;;;;;;;0.98;0.50;;;;;;;2.21;65.89;95055.88;5049220;28;20109;-84
2021/05/25 08:30:15;;;;;;;1.45;0.73;;;;;;;2.41;66.78;95050.63;5038168;28;20120;-84
2021/05/25 08:32:41;;;;;;;0.70;0.70;;;;;;;2.72;65.62;95053.84;5042189;28;20175;-84
2021/05/25 08:35:07;;;;;;;8.15;4.45;;;;;;;3.48;64.52;95053.03;5045198;28;20097;-83
2021/05/25 08:37:33;;;;;;;0.90;0.90;;;;;;;3.26;64.35;95047.13;5046322;28;20589;-84
2021/05/25 08:39:59;;;;;;;1.38;1.27;;;;;;;3.04;65.18;95057.88;5043778;28;20124;-84
2021/05/25 08:42:25;;;;;;;1.10;1.00;;;;;;;3.62;62.43;95057.78;5049882;28;20470;-85
2021/05/25 08:44:50;;;;;;;0.63;0.63;;;;;;;3.04;64.36;95055.25;5045821;28;20109;-84
2021/05/25 08:47:16;;;;;;;0.70;0.57;;;;;;;3.27;64.48;95057.53;5029076;28;20112;-84
2021/05/25 08:49:41;;;;;;;3.00;2.72;;;;;;;3.84;62.84;95058.34;5046191;28;20112;-84
2021/05/25 08:52:08;;;;;;;1.17;1.08;;;;;;;3.26;62.66;95069.03;5044183;28;20117;-85
2021/05/25 08:54:34;;;;;;;2.33;1.92;;;;;;;3.86;63.05;95064.28;5044983;28;20100;-85
2021/05/25 08:56:59;;;;;;;2.53;0.90;;;;;;;3.86;60.00;95071.34;5044532;28;20532;-84
2021/05/25 08:59:24;;;;;;;0.80;0.80;;;;;;;3.68;62.18;95067.72;5044685;28;20442;-84
2021/05/25 09:01:50;;;;;;;0.75;0.70;;;;;;;5.06;60.41;95067.50;5046526;28;20084;-85
2021/05/25 09:04:17;;;;;;;1.55;0.60;;;;;;;3.67;61.62;95057.34;5045669;28;20110;-84
2021/05/25 09:06:44;;;;;;;0.85;0.82;;;;;;;2.77;67.61;95087.59;5045856;28;20081;-84
2021/05/25 09:09:13;;;;;;;3.50;2.00;;;;;;;3.35;66.04;95071.75;5028455;28;20774;-84
2021/05/25 09:12:06;;;;;;;0.60;0.60;;;;;;;2.40;67.23;95091.81;5042495;28;20136;-84
2021/05/25 09:14:33;;;;;;;1.65;1.48;;;;;;;3.03;66.23;95093.06;5034490;28;20543;-83
2021/05/25 09:17:25;;;;;;;1.60;1.30;;;;;;;2.70;66.96;95086.50;5046603;28;20121;-83
2021/05/25 09:19:52;;;;;;;0.50;0.50;;;;;;;2.29;66.63;95099.84;5045091;28;20352;-83
2021/05/25 09:22:43;;;;;;;1.10;0.73;;;;;;;2.29;68.16;95099.84;5048593;28;20081;-83
2021/05/25 09:25:19;;;;;;;1.35;1.25;;;;;;;2.00;69.05;95097.06;5049883;28;20233;-83
2021/05/25 09:27:58;;;;;;;6.03;2.17;;;;;;;2.84;67.23;95098.38;5052018;28;20154;-83
2021/05/25 09:30:25;;;;;;;6.72;1.77;;;;;;;2.83;65.60;95102.00;5052163;28;20105;-83
2021/05/25 09:32:58;;;;;;;7.72;1.80;;;;;;;2.52;67.41;95101.19;5017289;28;20592;-83
2021/05/25 09:35:25;;;;;;;2.10;1.10;;;;;;;2.14;68.14;95108.13;5046703;28;20170;-84
2021/05/25 09:37:52;;;;;;;0.63;0.63;;;;;;;1.21;70.88;95127.50;5045223;28;20470;-84
2021/05/25 09:40:18;;;;;;;1.60;1.10;;;;;;;1.20;70.97;95139.75;5050176;28;20101;-82
2021/05/25 09:42:45;;;;;;;0.50;0.50;;;;;;;1.01;72.23;95137.88;5051894;28;20085;-83
2021/05/25 09:45:13;;;;;;;1.27;0.43;;;;;;;0.96;71.53;95142.69;5033283;28;20078;-83
2021/05/25 09:47:44;;;;;;;0.38;0.30;;;;;;;0.54;72.47;95136.50;5052112;28;20109;-82
2021/05/25 09:50:11;;;;;;;0.20;0.20;;;;;;;0.69;72.60;95144.06;5051045;28;20351;-82
2021/05/25 09:52:57;;;;;;;2.40;0.50;;;;;;;0.08;73.30;95147.16;5030893;28;20110;-83
2021/05/25 09:55:23;;;;;;;1.25;0.55;;;;;;;0.32;73.67;95140.06;5055624;28;20112;-82
2021/05/25 09:57:51;;;;;;;2.20;0.30;;;;;;;1.04;73.14;95142.88;5052538;28;20077;-83
2021/05/25 10:00:24;;;;;;;0.63;0.30;;;;;;;1.10;72.64;95144.97;5051197;28;20097;-83
2021/05/25 10:03:18;;;;;;;0.60;0.60;;;;;;;0.78;73.35;95148.50;5052013;28;20167;-83
2021/05/25 10:05:47;;;;;;;0.10;0.10;;;;;;;1.22;72.54;95150.13;5049133;28;20061;-83
2021/05/25 10:08:13;;;;;;;0.40;0.40;;;;;;;1.32;72.59;95158.88;5034535;28;20117;-83
2021/05/25 10:10:39;;;;;;;0.65;0.50;;;;;;;1.69;71.43;95154.91;5049640;28;20102;-83
2021/05/25 10:13:04;;;;;;;2.20;0.70;;;;;;;2.11;69.47;95156.50;5049793;28;20123;-83
2021/05/25 10:15:30;;;;;;;0.75;0.70;;;;;;;1.95;69.67;95148.34;5014631;28;20105;-83
2021/05/25 10:20:21;;;;;;;0.47;0.47;;;;;;;2.09;70.88;95157.63;5046111;28;20443;-84
2021/05/25 10:22:47;;;;;;;0.70;0.70;;;;;;;2.50;69.68;95165.38;5045925;28;20686;-84
2021/05/25 10:25:13;;;;;;;0.43;0.40;;;;;;;2.56;68.50;95171.88;5047032;28;20163;-84
2021/05/25 10:27:39;;;;;;;0.55;0.40;;;;;;;2.55;68.63;95178.13;5044800;28;20124;-84
2021/05/25 10:30:05;;;;;;;0.50;0.50;;;;;;;2.66;68.78;95172.72;5044639;28;20117;-84
2021/05/25 10:32:30;;;;;;;0.90;0.90;;;;;;;1.84;70.79;95189.47;5028880;28;20116;-84
2021/05/25 10:34:56;;;;;;;0.50;0.50;;;;;;;1.00;72.24;95212.25;5066725;28;20513;-83
2021/05/25 10:37:22;;;;;;;0.43;0.40;;;;;;;1.72;72.23;95187.91;5053462;28;20089;-83
2021/05/25 10:39:56;;;;;;;0.43;0.40;;;;;;;1.90;71.59;95214.38;5028078;28;20216;-83
2021/05/25 10:42:26;;;;;;;0.77;0.60;;;;;;;2.35;68.81;95215.72;5043271;28;20205;-84
2021/05/25 10:45:04;;;;;;;0.30;0.30;;;;;;;1.97;71.59;95210.25;5024271;28;20466;-84
2021/05/25 10:47:36;;;;;;;0.28;0.20;;;;;;;1.85;69.13;95209.53;5045139;28;20536;-84
2021/05/25 10:52:38;;;;;;;0.70;0.50;;;;;;;1.86;69.08;95208.56;5045544;28;20105;-84
2021/05/25 10:55:03;;;;;;;0.52;0.35;;;;;;;1.63;69.39;95221.03;5027666;28;20508;-83
2021/05/25 10:57:50;;;;;;;0.38;0.38;;;;;;;2.37;68.49;95205.91;5034165;28;20316;-84
2021/05/25 11:00:29;;;;;;;0.68;0.13;;;;;;;3.53;66.11;95213.97;5030772;28;20101;-84
2021/05/25 11:03:13;;;;;;;1.00;0.90;;;;;;;4.26;63.43;95209.78;5044050;28;20115;-84
2021/05/25 11:05:43;;;;;;;1.40;0.80;;;;;;;3.88;63.92;95212.44;5043500;28;20077;-84
2021/05/25 11:08:11;;;;;;;0.70;0.60;;;;;;;3.51;65.70;95218.56;5027029;28;20173;-83
2021/05/25 11:10:41;;;;;;;0.50;0.47;;;;;;;3.29;66.67;95202.94;5043274;28;20440;-85
2021/05/25 11:13:20;;;;;;;0.70;0.60;;;;;;;3.05;65.19;95224.44;5043882;28;20525;-84
2021/05/25 11:16:09;;;;;;;;;;;;;;;2.53;65.23;95210.59;5042442;28;20528;-84
2021/05/25 11:21:37;;;;;;;0.70;0.60;;;;;;;2.61;69.30;95224.84;5047757;28;20642;-83
2021/05/25 11:24:25;;;;;;;2.08;0.90;;;;;;;2.97;66.56;95221.69;5044979;28;20196;-85
2021/05/25 11:26:51;;;;;;;1.98;1.45;;;;;;;2.43;68.15;95222.09;5052473;28;20105;-84
2021/05/25 11:29:21;;;;;;;1.48;1.35;;;;;;;2.96;66.09;95222.66;5046288;28;20531;-85
2021/05/25 11:31:47;;;;;;;1.23;1.23;;;;;;;3.64;64.90;95232.22;5009185;28;20106;-84
2021/05/25 11:34:12;;;;;;;1.25;1.15;;;;;;;3.07;64.91;95235.66;5051061;28;20143;-85
2021/05/25 11:36:38;;;;;;;2.53;1.33;;;;;;;3.52;64.79;95214.94;5060561;28;20219;-85
2021/05/25 11:39:08;;;;;;;3.88;1.70;;;;;;;3.74;65.43;95223.47;5063599;28;20108;-84
2021/05/25 11:41:33;;;;;;;2.20;1.15;;;;;;;3.59;63.45;95233.63;5054488;28;20100;-83
2021/05/25 11:44:07;;;;;;;2.67;1.52;;;;;;;3.08;68.97;95239.09;5043799;28;20391;-83
2021/05/25 11:46:42;;;;;;;1.60;1.50;;;;;;;2.44;71.24;95266.63;5027385;28;20536;-84
2021/05/25 11:49:08;;;;;;;1.23;1.10;;;;;;;1.66;73.23;95233.09;5045109;28;20219;-84
2021/05/25 11:51:34;;;;;;;2.00;1.17;;;;;;;1.49;74.07;95267.63;5015435;28;20179;-84
2021/05/25 11:54:14;;;;;;;1.30;1.20;;;;;;;2.05;73.70;95258.66;5045410;28;20089;-83